This is the latest recevied weather packets stored in our database for station/object CE4ERM-13. If no packets are shown the sender has not sent any weather packets the latest 10 day(s).
| Time | Temp. | Humidity | Pressure | Rain* | Wind** | Luminosity | Snow |
|---|---|---|---|---|---|---|---|
| 1777294651 | 14.44° C | 44% | 1020.4 hPa | - | - | - | - |
| 1777293450 | 13.89° C | 46% | 1023.2 hPa | - | - | - | - |
| 1777293125 | 16.11° C | 41% | 1020.4 hPa | - | - | - | - |
| 1777292850 | 13.89° C | 46% | 1021.8 hPa | - | - | - | - |
| 1777292525 | 15.56° C | 41% | 1019.9 hPa | - | - | - | - |
| 1777291925 | 15.56° C | 43% | 1020.4 hPa | - | - | - | - |
| 1777291650 | 13.33° C | 48% | 1021.4 hPa | - | - | - | - |
| 1777290723 | 12.78° C | 48% | 1020.7 hPa | - | - | - | - |
| 1777290450 | 13.89° C | 46% | 1019.7 hPa | - | - | - | - |
| 1777290123 | 12.22° C | 51% | 1020.4 hPa | - | - | - | - |
| 1777289523 | 14.44° C | 42% | 1020.3 hPa | - | - | - | - |
| 1777288923 | 13.89° C | 43% | 1019.4 hPa | - | - | - | - |
| 1777288650 | 13.33° C | 46% | 1021.6 hPa | - | - | - | - |
| 1777288322 | 14.44° C | 43% | 1021.1 hPa | - | - | - | - |
| 1777288050 | 13.33° C | 46% | 1020.9 hPa | - | - | - | - |
| 1777287122 | 13.89° C | 45% | 1020.4 hPa | - | - | - | - |
| 1777286522 | 14.44° C | 43% | 1020.2 hPa | - | - | - | - |
| 1777285921 | 14.44° C | 43% | 1021.2 hPa | - | - | - | - |
| 1777285367 | 14.44° C | 43% | 1020.3 hPa | - | - | - | - |
| 1777285321 | 14.44° C | 43% | 1020.3 hPa | - | - | - | - |
| 1777284720 | 14.44° C | 42% | 1019.3 hPa | - | - | - | - |
| 1777284450 | 14.44° C | 44% | 1019.2 hPa | - | - | - | - |
| 1777283849 | 13.89° C | 50% | 1021.2 hPa | - | - | - | - |
| 1777283520 | 14.44° C | 42% | 1020.1 hPa | - | - | - | - |
| 1777283249 | 14.44° C | 42% | 1019.8 hPa | - | - | - | - |
* Rain since midnight (hover to see other rain measurements)
** Current wind speed in m/s (hover to see current wind gust speed)